createdAt,value
2019-02-08T00:00:23.335Z,99.90
2019-02-08T00:03:27.891Z,99.90
2019-02-08T00:06:32.330Z,99.90
2019-02-08T00:09:36.770Z,99.90
2019-02-08T00:12:41.196Z,99.90
2019-02-08T00:15:45.634Z,99.90
2019-02-08T00:18:50.421Z,99.90
2019-02-08T00:21:54.804Z,99.90
2019-02-08T00:24:59.248Z,99.90
2019-02-08T00:28:04.396Z,99.90
2019-02-08T00:31:08.840Z,99.90
2019-02-08T00:34:13.283Z,99.90
2019-02-08T00:37:17.705Z,99.90
2019-02-08T00:40:26.464Z,99.90
2019-02-08T00:43:32.938Z,99.90
2019-02-08T00:46:37.690Z,99.90
2019-02-08T00:49:42.098Z,99.90
2019-02-08T00:52:47.693Z,99.90
2019-02-08T00:55:52.172Z,99.90
2019-02-08T00:58:56.882Z,99.90
2019-02-08T01:02:01.693Z,99.90
2019-02-08T01:05:11.158Z,99.90
2019-02-08T01:08:15.590Z,99.90
2019-02-08T01:11:20.511Z,99.90
2019-02-08T01:14:25.001Z,99.90
2019-02-08T01:17:29.438Z,99.90
2019-02-08T01:20:34.400Z,99.90
2019-02-08T01:23:41.321Z,99.90
2019-02-08T01:26:45.051Z,99.90
2019-02-08T01:29:49.487Z,99.90
2019-02-08T01:32:53.920Z,99.90
2019-02-08T01:35:58.659Z,99.90
2019-02-08T01:39:03.394Z,99.90
2019-02-08T01:42:07.826Z,99.90
2019-02-08T01:45:19.655Z,99.90
2019-02-08T01:48:24.089Z,99.90
2019-02-08T01:51:28.894Z,99.90
2019-02-08T01:54:33.317Z,99.90
2019-02-08T01:57:37.779Z,99.90
2019-02-08T02:00:45.323Z,99.90
2019-02-08T02:03:49.746Z,99.90
2019-02-08T02:06:54.184Z,99.90
2019-02-08T02:09:58.904Z,99.90
2019-02-08T02:13:03.473Z,99.90
2019-02-08T02:16:08.256Z,99.90
2019-02-08T02:19:12.679Z,99.90
2019-02-08T02:22:17.110Z,99.90
2019-02-08T02:25:22.344Z,99.90
2019-02-08T02:28:27.077Z,99.90
2019-02-08T02:31:31.805Z,99.90
2019-02-08T02:34:36.233Z,99.90
2019-02-08T02:37:40.965Z,99.90
2019-02-08T02:40:45.393Z,99.90
2019-02-08T02:43:50.120Z,99.90
2019-02-08T02:46:54.958Z,99.90
2019-02-08T02:49:59.381Z,99.90
2019-02-08T02:53:04.198Z,99.90
2019-02-08T02:56:08.633Z,99.90
2019-02-08T02:59:13.269Z,99.90
2019-02-08T03:02:18.092Z,99.90
2019-02-08T03:05:22.519Z,99.90
2019-02-08T03:08:27.252Z,99.90
2019-02-08T03:11:31.984Z,99.90
2019-02-08T03:14:36.423Z,99.90
2019-02-08T03:17:41.130Z,99.90
2019-02-08T03:20:45.630Z,99.90
2019-02-08T03:23:50.061Z,99.90
2019-02-08T03:26:54.510Z,99.90
2019-02-08T03:29:58.942Z,99.90
2019-02-08T03:33:03.688Z,99.90
2019-02-08T03:36:08.490Z,99.90
2019-02-08T03:39:13.221Z,99.90
2019-02-08T03:42:17.663Z,99.90
2019-02-08T03:45:22.267Z,99.90
2019-02-08T03:48:26.702Z,99.90
2019-02-08T03:51:31.444Z,99.90
2019-02-08T03:54:35.889Z,99.90
2019-02-08T03:57:40.325Z,99.90
2019-02-08T04:00:55.238Z,99.90
2019-02-08T04:04:13.187Z,99.90
2019-02-08T04:07:17.613Z,99.90
2019-02-08T04:10:22.650Z,99.90
2019-02-08T04:13:27.087Z,99.90
2019-02-08T04:16:31.527Z,99.90
2019-02-08T04:19:35.971Z,99.90
2019-02-08T04:22:40.399Z,99.90
2019-02-08T04:25:44.834Z,99.90
2019-02-08T04:28:49.266Z,99.90
2019-02-08T04:31:53.702Z,99.90
2019-02-08T04:34:58.147Z,99.90
2019-02-08T04:38:02.588Z,99.90
2019-02-08T04:41:07.289Z,99.90
2019-02-08T04:44:12.023Z,99.90
2019-02-08T04:47:16.459Z,99.90
2019-02-08T04:50:30.743Z,99.90
2019-02-08T04:53:35.516Z,99.90
2019-02-08T04:56:40.265Z,99.90
2019-02-08T04:59:45.094Z,99.90
2019-02-08T05:02:49.926Z,99.90
2019-02-08T05:05:54.658Z,99.90
2019-02-08T05:08:59.089Z,99.90
2019-02-08T05:12:03.521Z,99.90
2019-02-08T05:15:08.995Z,99.90
2019-02-08T05:18:13.696Z,99.90
2019-02-08T05:21:18.415Z,99.90
2019-02-08T05:24:23.142Z,99.90
2019-02-08T05:27:27.873Z,99.90
2019-02-08T05:30:37.335Z,99.90
2019-02-08T05:33:41.769Z,99.90
2019-02-08T05:36:46.213Z,99.90
2019-02-08T05:39:50.992Z,99.90
2019-02-08T05:42:55.730Z,99.90
2019-02-08T05:46:00.163Z,99.90
2019-02-08T05:49:04.985Z,99.90
2019-02-08T05:52:09.412Z,99.90
2019-02-08T05:55:18.065Z,99.90
2019-02-08T05:58:22.508Z,99.90
2019-02-08T06:01:26.936Z,99.90
2019-02-08T06:04:31.711Z,99.90
2019-02-08T06:07:36.440Z,99.90
2019-02-08T06:10:40.946Z,99.90
2019-02-08T06:13:45.370Z,99.90
2019-02-08T06:16:50.124Z,99.90
2019-02-08T06:19:54.563Z,99.90
2019-02-08T06:22:59.380Z,99.90
2019-02-08T06:26:03.820Z,99.90
2019-02-08T06:29:08.254Z,99.90
2019-02-08T06:32:12.682Z,99.90
2019-02-08T06:35:19.439Z,99.90
2019-02-08T06:38:23.880Z,99.90
2019-02-08T06:41:28.581Z,99.90
2019-02-08T06:44:33.010Z,99.90
2019-02-08T06:47:37.733Z,99.90
2019-02-08T06:50:42.194Z,99.90
2019-02-08T06:53:46.675Z,99.90
2019-02-08T06:56:53.055Z,99.90
2019-02-08T06:59:59.128Z,99.90
2019-02-08T07:03:07.913Z,99.90
2019-02-08T07:06:16.764Z,99.90
2019-02-08T07:09:25.803Z,99.90
2019-02-08T07:12:31.871Z,99.90
2019-02-08T07:15:50.324Z,99.90
2019-02-08T07:19:02.419Z,99.90
2019-02-08T07:22:17.811Z,99.90
2019-02-08T07:25:23.950Z,99.90
2019-02-08T07:28:33.148Z,99.90
2019-02-08T07:31:48.170Z,99.90
2019-02-08T07:35:07.133Z,99.90
2019-02-08T07:38:22.525Z,99.90
2019-02-08T07:41:30.080Z,99.90
2019-02-08T07:44:38.531Z,99.90
2019-02-08T07:47:48.734Z,99.90
2019-02-08T07:50:57.477Z,99.90
2019-02-08T07:54:03.881Z,99.90
2019-02-08T07:57:16.192Z,99.90
2019-02-08T08:00:34.467Z,99.90
2019-02-08T08:03:41.445Z,99.90
2019-02-08T08:06:54.040Z,99.90
2019-02-08T08:10:01.449Z,99.90
2019-02-08T08:13:16.549Z,99.90
2019-02-08T08:16:39.071Z,99.90
2019-02-08T08:19:55.563Z,99.90
2019-02-08T08:23:11.947Z,99.90
2019-02-08T08:26:35.311Z,99.90
2019-02-08T08:29:42.320Z,99.90
2019-02-08T08:33:10.407Z,99.90
2019-02-08T08:36:22.299Z,99.90
2019-02-08T08:40:19.977Z,99.90
2019-02-08T08:43:45.313Z,99.90
2019-02-08T08:47:26.360Z,99.90
2019-02-08T08:51:09.054Z,99.90
2019-02-08T08:54:29.575Z,99.90
2019-02-08T08:57:47.832Z,99.90
2019-02-08T09:00:59.867Z,99.90
2019-02-08T09:04:21.061Z,99.90
2019-02-08T09:07:33.256Z,99.70
2019-02-08T09:11:02.210Z,99.90
2019-02-08T09:14:40.166Z,99.50
2019-02-08T09:17:51.851Z,99.30
2019-02-08T09:21:16.045Z,99.60
2019-02-08T09:24:43.133Z,99.40
2019-02-08T09:28:19.168Z,98.60
2019-02-08T09:31:37.520Z,98.30
2019-02-08T09:35:02.956Z,98.30
2019-02-08T09:38:23.151Z,98.20
2019-02-08T09:41:59.410Z,98.10
2019-02-08T09:45:41.866Z,98.20
2019-02-08T09:49:02.570Z,97.90
2019-02-08T09:52:37.073Z,97.40
2019-02-08T09:56:04.109Z,97.00
2019-02-08T09:59:29.851Z,96.90
2019-02-08T10:03:01.991Z,93.50
2019-02-08T10:06:29.156Z,90.60
2019-02-08T10:09:59.105Z,86.40
2019-02-08T10:13:25.222Z,83.20
2019-02-08T10:17:04.849Z,78.80
2019-02-08T10:20:47.250Z,76.90
2019-02-08T10:24:29.607Z,73.20
2019-02-08T10:27:50.506Z,68.60
2019-02-08T10:31:34.228Z,64.50
2019-02-08T10:35:15.167Z,65.50
2019-02-08T10:39:08.471Z,63.30
2019-02-08T10:42:47.756Z,64.30
2019-02-08T10:46:34.664Z,65.20
2019-02-08T10:50:27.897Z,65.80
2019-02-08T10:53:52.865Z,62.70
2019-02-08T10:57:02.251Z,56.70
2019-02-08T11:00:52.449Z,58.10
2019-02-08T11:04:36.823Z,57.30
2019-02-08T11:07:56.639Z,59.70
2019-02-08T11:11:47.919Z,66.40
2019-02-08T11:15:08.754Z,67.90
2019-02-08T11:19:02.808Z,74.30
2019-02-08T11:22:07.547Z,76.60
2019-02-08T11:25:12.589Z,79.90
2019-02-08T11:28:17.319Z,80.80
2019-02-08T11:31:21.769Z,82.40
2019-02-08T11:34:26.278Z,81.30
2019-02-08T11:37:31.101Z,79.50
2019-02-08T11:40:35.542Z,80.00
2019-02-08T11:43:39.981Z,75.30
2019-02-08T11:46:44.986Z,73.40
2019-02-08T11:49:49.716Z,74.20
2019-02-08T11:52:54.178Z,74.20
2019-02-08T11:55:58.612Z,74.80
2019-02-08T11:59:03.495Z,75.70
2019-02-08T12:02:08.787Z,75.70
2019-02-08T12:05:13.778Z,79.20
2019-02-08T12:08:18.529Z,78.60
2019-02-08T12:11:23.237Z,79.00
2019-02-08T12:14:27.698Z,78.80
2019-02-08T12:17:32.404Z,78.30
2019-02-08T12:20:36.850Z,78.10
2019-02-08T12:23:41.288Z,79.10
2019-02-08T12:26:45.726Z,79.10
2019-02-08T12:29:50.510Z,79.60
2019-02-08T12:32:55.028Z,81.20
2019-02-08T12:35:59.753Z,80.00
2019-02-08T12:39:07.660Z,81.90
2019-02-08T12:42:12.391Z,83.00
2019-02-08T12:45:19.634Z,84.50
2019-02-08T12:48:24.079Z,84.50
2019-02-08T12:51:28.522Z,84.30
2019-02-08T12:54:32.957Z,85.20
2019-02-08T12:57:37.685Z,86.50
2019-02-08T13:00:42.133Z,85.60
2019-02-08T13:03:46.569Z,84.50
2019-02-08T13:06:51.010Z,84.60
2019-02-08T13:09:55.449Z,85.40
2019-02-08T13:13:00.134Z,85.30
2019-02-08T13:16:04.946Z,84.80
2019-02-08T13:19:09.389Z,83.70
2019-02-08T13:22:14.101Z,79.50
2019-02-08T13:25:19.189Z,80.00
2019-02-08T13:28:23.621Z,78.20
2019-02-08T13:31:28.388Z,79.70
2019-02-08T13:34:32.823Z,79.40
2019-02-08T13:37:37.546Z,79.40
2019-02-08T13:40:42.055Z,79.70
2019-02-08T13:43:46.490Z,77.80
2019-02-08T13:46:51.222Z,74.80
2019-02-08T13:49:55.958Z,71.30
2019-02-08T13:53:00.746Z,68.80
2019-02-08T13:56:05.691Z,68.80
2019-02-08T13:59:10.450Z,72.00
2019-02-08T14:02:14.895Z,75.10
2019-02-08T14:05:19.810Z,76.00
2019-02-08T14:08:24.546Z,77.60
2019-02-08T14:11:28.985Z,78.60
2019-02-08T14:14:33.589Z,79.40
2019-02-08T14:17:38.060Z,80.10
2019-02-08T14:20:42.542Z,80.80
2019-02-08T14:23:46.984Z,81.60
2019-02-08T14:26:51.436Z,82.50
2019-02-08T14:29:56.145Z,83.10
2019-02-08T14:33:00.965Z,81.60
2019-02-08T14:36:05.938Z,82.80
2019-02-08T14:39:11.134Z,82.50
2019-02-08T14:42:15.867Z,83.00
2019-02-08T14:45:20.719Z,83.90
2019-02-08T14:48:25.156Z,84.30
2019-02-08T14:51:29.852Z,84.70
2019-02-08T14:54:34.293Z,85.80
2019-02-08T14:57:38.738Z,85.60
2019-02-08T15:00:43.538Z,87.00
2019-02-08T15:03:48.048Z,87.10
2019-02-08T15:06:52.494Z,87.70
2019-02-08T15:09:56.957Z,86.80
2019-02-08T15:13:01.947Z,87.30
2019-02-08T15:16:06.723Z,87.70
2019-02-08T15:19:11.170Z,88.70
2019-02-08T15:22:15.614Z,88.10
2019-02-08T15:25:20.564Z,88.60
2019-02-08T15:28:25.011Z,88.40
2019-02-08T15:31:29.714Z,88.20
2019-02-08T15:34:34.446Z,89.10
2019-02-08T15:37:38.892Z,89.10
2019-02-08T15:40:52.638Z,89.30
2019-02-08T15:43:57.089Z,89.50
2019-02-08T15:47:01.523Z,90.00
2019-02-08T15:50:08.888Z,90.20
2019-02-08T15:53:13.327Z,90.20
2019-02-08T15:56:18.104Z,90.30
2019-02-08T15:59:22.836Z,90.10
2019-02-08T16:02:27.280Z,90.30
2019-02-08T16:05:32.491Z,90.60
2019-02-08T16:08:36.931Z,90.70
2019-02-08T16:11:41.653Z,90.80
2019-02-08T16:14:46.390Z,91.30
2019-02-08T16:17:51.735Z,91.00
2019-02-08T16:20:56.340Z,91.10
2019-02-08T16:24:01.094Z,91.20
2019-02-08T16:27:06.253Z,91.40
2019-02-08T16:30:15.236Z,91.40
2019-02-08T16:33:19.674Z,91.60
2019-02-08T16:36:24.094Z,91.90
2019-02-08T16:39:28.843Z,91.80
2019-02-08T16:42:33.271Z,91.80
2019-02-08T16:45:39.815Z,91.80
2019-02-08T16:48:44.246Z,92.10
2019-02-08T16:51:48.677Z,92.60
2019-02-08T16:54:53.418Z,92.30
2019-02-08T16:57:58.109Z,92.40
2019-02-08T17:01:02.545Z,92.70
2019-02-08T17:04:06.991Z,92.50
2019-02-08T17:07:11.720Z,92.40
2019-02-08T17:10:18.525Z,92.30
2019-02-08T17:13:23.235Z,91.90
2019-02-08T17:16:27.677Z,91.90
2019-02-08T17:19:32.115Z,92.00
2019-02-08T17:22:36.814Z,92.00
2019-02-08T17:25:41.245Z,92.00
2019-02-08T17:28:45.681Z,92.20
2019-02-08T17:31:50.406Z,92.10
2019-02-08T17:34:54.845Z,91.70
2019-02-08T17:37:59.745Z,91.50
2019-02-08T17:41:04.349Z,91.70
2019-02-08T17:44:08.790Z,91.60
2019-02-08T17:47:13.215Z,91.50
2019-02-08T17:50:21.976Z,91.50
2019-02-08T17:53:26.403Z,91.60
2019-02-08T17:56:30.838Z,91.50
2019-02-08T17:59:35.527Z,91.80
2019-02-08T18:02:39.996Z,91.50
2019-02-08T18:05:44.492Z,91.70
2019-02-08T18:08:48.932Z,91.80
2019-02-08T18:11:53.630Z,91.90
2019-02-08T18:14:58.114Z,91.90
2019-02-08T18:18:04.535Z,91.90
2019-02-08T18:21:08.976Z,92.10
2019-02-08T18:24:13.678Z,92.30
2019-02-08T18:27:18.410Z,92.40
2019-02-08T18:30:27.011Z,92.40
2019-02-08T18:33:31.441Z,92.40
2019-02-08T18:36:35.876Z,92.50
2019-02-08T18:39:40.611Z,92.50
2019-02-08T18:42:45.211Z,92.50
2019-02-08T18:45:49.965Z,92.60
2019-02-08T18:48:54.390Z,92.70
2019-02-08T18:51:58.832Z,92.90
2019-02-08T18:55:03.550Z,92.80
2019-02-08T18:58:08.381Z,92.90
2019-02-08T19:01:12.814Z,93.20
2019-02-08T19:04:17.495Z,93.40
2019-02-08T19:07:21.994Z,93.30
2019-02-08T19:10:26.498Z,93.70
2019-02-08T19:13:30.930Z,93.50
2019-02-08T19:16:35.372Z,93.40
2019-02-08T19:19:40.075Z,93.70
2019-02-08T19:22:44.792Z,93.50
2019-02-08T19:25:49.619Z,93.90
2019-02-08T19:28:54.376Z,94.20
2019-02-08T19:31:58.818Z,93.70
2019-02-08T19:35:04.227Z,93.70
2019-02-08T19:38:09.578Z,93.60
2019-02-08T19:41:14.023Z,93.10
2019-02-08T19:44:18.726Z,92.60
2019-02-08T19:47:23.474Z,92.80
2019-02-08T19:50:37.665Z,92.90
2019-02-08T19:53:42.088Z,93.40
2019-02-08T19:56:46.588Z,93.70
2019-02-08T19:59:51.285Z,93.20
2019-02-08T20:02:55.809Z,93.70
2019-02-08T20:06:00.243Z,94.00
2019-02-08T20:09:07.323Z,93.60
2019-02-08T20:12:12.071Z,93.30
2019-02-08T20:15:19.746Z,93.30
2019-02-08T20:18:24.255Z,92.80
2019-02-08T20:21:29.117Z,92.80
2019-02-08T20:24:33.844Z,92.60
2019-02-08T20:27:38.284Z,92.50
2019-02-08T20:30:42.873Z,92.20
2019-02-08T20:33:47.308Z,92.20
2019-02-08T20:36:52.057Z,92.20
2019-02-08T20:39:56.502Z,92.00
2019-02-08T20:43:00.941Z,92.20
2019-02-08T20:46:05.442Z,92.00
2019-02-08T20:49:10.157Z,92.30
2019-02-08T20:52:14.588Z,92.60
2019-02-08T20:55:21.167Z,93.30
2019-02-08T20:58:25.887Z,93.50
2019-02-08T21:01:30.635Z,94.20
2019-02-08T21:04:35.131Z,94.00
2019-02-08T21:07:39.874Z,94.20
2019-02-08T21:10:44.362Z,94.70
2019-02-08T21:13:49.126Z,94.70
2019-02-08T21:16:53.852Z,94.70
2019-02-08T21:19:58.449Z,95.10
2019-02-08T21:23:02.888Z,95.10
2019-02-08T21:26:07.324Z,95.50
2019-02-08T21:29:12.061Z,95.60
2019-02-08T21:32:16.796Z,95.40
2019-02-08T21:35:21.835Z,95.50
2019-02-08T21:38:26.565Z,95.80
2019-02-08T21:41:30.990Z,95.80
2019-02-08T21:44:35.835Z,96.00
2019-02-08T21:47:40.554Z,96.40
2019-02-08T21:50:45.386Z,96.20
2019-02-08T21:53:49.822Z,96.30
2019-02-08T21:56:54.251Z,96.20
2019-02-08T21:59:58.674Z,95.90
2019-02-08T22:03:05.119Z,96.00
2019-02-08T22:06:09.774Z,96.10
2019-02-08T22:09:14.588Z,95.90
2019-02-08T22:12:19.024Z,95.80
2019-02-08T22:15:27.989Z,96.20
2019-02-08T22:18:32.426Z,96.30
2019-02-08T22:21:36.931Z,96.50
2019-02-08T22:24:41.626Z,96.40
2019-02-08T22:27:46.554Z,96.50
2019-02-08T22:30:50.986Z,96.60
2019-02-08T22:33:55.423Z,96.90
2019-02-08T22:36:59.857Z,96.40
2019-02-08T22:40:07.425Z,96.70
2019-02-08T22:43:12.200Z,96.90
2019-02-08T22:46:16.884Z,97.00
2019-02-08T22:49:21.324Z,97.00
2019-02-08T22:52:26.145Z,96.80
2019-02-08T22:55:32.910Z,96.00
2019-02-08T22:58:37.336Z,95.80
2019-02-08T23:01:44.441Z,95.70
2019-02-08T23:04:48.947Z,95.90
2019-02-08T23:07:53.686Z,96.10
2019-02-08T23:10:58.448Z,95.90
2019-02-08T23:14:02.890Z,95.60
2019-02-08T23:17:07.321Z,95.60
2019-02-08T23:20:11.895Z,95.80
2019-02-08T23:23:16.329Z,96.10
2019-02-08T23:26:21.047Z,96.40
2019-02-08T23:29:30.168Z,96.80
2019-02-08T23:32:31.942Z,96.20
2019-02-08T23:35:42.861Z,96.10
2019-02-08T23:38:43.143Z,96.10
2019-02-08T23:41:47.898Z,95.70
2019-02-08T23:44:52.334Z,95.10
2019-02-08T23:47:56.767Z,94.90
2019-02-08T23:51:01.457Z,94.80
2019-02-08T23:54:06.160Z,94.70
2019-02-08T23:57:10.584Z,94.60
